Pittsburg, NH (03592)

7:55 AM EST on December 10, 2016 (GMT -0500)
Pittsburg village | | Change Station

Elev 1362 ft 45.05 °N, 71.39 °W | Updated 26 seconds ago

Overcast
Overcast
8.4 °F
Feels Like 8 °F
N
0.0
Wind Variable Wind from West
Gusts 2.0 mph

Today
High -- | Low -- °F
--% Chance of Precip.
Yesterday
High -- | Low -- °F
Precip. -- in
Pressure 30.25 in
Visibility 10.0 miles
Clouds Mostly Cloudy 3200 ft
Windchill 8 °F
Dew Point 3 °F
Humidity 79%
Rainfall 0.00 in
Snow Depth Not available.
7:13 AM 4:03 PM
Waxing Gibbous, 83% visible
METAR KBML 101252Z AUTO VRB06KT 10SM BKN032 M11/M18 A3017 RMK AO2 SLP241 T11111178
Pressure 30.25 in
Visibility 10.0 miles
Clouds Mostly Cloudy 3200 ft
Windchill 8 °F
Dew Point 3 °F
Humidity 79%
Rainfall 0.00 in
Snow Depth Not available.
7:13 AM 4:03 PM
Waxing Gibbous, 83% visible
METAR KBML 101252Z AUTO VRB06KT 10SM BKN032 M11/M18 A3017 RMK AO2 SLP241 T11111178

10-Day Weather Forecast

Almanac

Astronomy

Dec. 10, 2016 Rise Set
Actual Time
Civil Twilight
Nautical Twilight
Astronomical Twilight
Moon
Length of Visible Light
Length of Day
Tomorrow will be .
, % of the Moon is Illuminated

Today's Extremes

State Highs State Lows

Community

WunderPhotos

Upload Photos

1,956,540 photos uploaded!

WunderBlog® & News

Nearby

Air Quality

  Air Quality AQ Index Pollutant
Not available.

Snow Depth

Station Depth Elevation

Earthquake Activity

City Distance Mag. Time & Date
Minimum magnitude displayed is 2.5.

Coastal Water Temperatures

Place Temperature

Stations

Nearby Weather Stations

Station Location Temp. Windchill Dew Point Humidity Wind Precip. Elev Updated Type
                   

Watches & Warnings

There are currently no watches in effect.